createdAt,value
2023-02-14T00:01:41.588Z,61.63
2023-02-14T00:04:09.746Z,60.91
2023-02-14T00:06:38.960Z,61.35
2023-02-14T00:09:08.608Z,62.37
2023-02-14T00:11:38.475Z,62.56
2023-02-14T00:14:24.776Z,61.95
2023-02-14T00:16:52.928Z,62.40
2023-02-14T00:19:22.811Z,61.98
2023-02-14T00:21:51.569Z,61.07
2023-02-14T00:24:22.571Z,61.94
2023-02-14T00:26:53.350Z,61.94
2023-02-14T00:29:24.566Z,62.49
2023-02-14T00:31:53.349Z,61.44
2023-02-14T00:34:21.981Z,61.31
2023-02-14T00:36:50.358Z,61.52
2023-02-14T00:39:20.229Z,62.16
2023-02-14T00:41:48.564Z,62.44
2023-02-14T00:44:19.461Z,62.09
2023-02-14T00:46:47.501Z,62.05
2023-02-14T00:49:15.613Z,62.82
2023-02-14T00:51:43.769Z,62.77
2023-02-14T00:54:11.839Z,62.65
2023-02-14T00:56:39.922Z,62.72
2023-02-14T00:59:10.756Z,61.49
2023-02-14T01:01:40.550Z,62.01
2023-02-14T01:04:09.216Z,62.05
2023-02-14T01:06:37.717Z,61.81
2023-02-14T01:09:06.323Z,62.59
2023-02-14T01:11:34.583Z,62.44
2023-02-14T01:14:04.278Z,61.18
2023-02-14T01:16:32.458Z,61.62
2023-02-14T01:19:27.467Z,60.84
2023-02-14T01:21:55.525Z,61.48
2023-02-14T01:24:25.160Z,61.65
2023-02-14T01:26:53.205Z,60.35
2023-02-14T01:29:21.238Z,61.77
2023-02-14T01:31:49.412Z,61.29
2023-02-14T01:34:18.669Z,61.97
2023-02-14T01:36:49.585Z,61.01
2023-02-14T01:39:18.519Z,62.14
2023-02-14T01:41:48.940Z,61.76
2023-02-14T01:45:00.490Z,62.43
2023-02-14T01:47:31.997Z,62.34
2023-02-14T01:50:05.787Z,62.11
2023-02-14T01:52:39.523Z,62.26
2023-02-14T01:55:15.132Z,62.43
2023-02-14T01:57:49.456Z,63.90
2023-02-14T02:00:37.091Z,63.88
2023-02-14T02:03:13.381Z,64.37
2023-02-14T02:05:48.077Z,62.93
2023-02-14T02:08:20.000Z,63.98
2023-02-14T02:10:48.348Z,63.83
2023-02-14T02:13:23.699Z,63.04
2023-02-14T02:16:09.170Z,62.98
2023-02-14T02:18:54.704Z,63.44
2023-02-14T02:22:15.507Z,63.40
2023-02-14T02:24:56.000Z,63.27
2023-02-14T02:27:53.530Z,63.78
2023-02-14T02:31:08.832Z,63.96
2023-02-14T02:34:17.083Z,63.08
2023-02-14T02:37:10.937Z,63.10
2023-02-14T02:39:55.394Z,63.10
2023-02-14T02:42:35.069Z,63.45
2023-02-14T02:45:13.597Z,63.43
2023-02-14T02:47:50.305Z,63.39
2023-02-14T02:50:53.085Z,63.45
2023-02-14T02:53:28.444Z,62.80
2023-02-14T02:56:20.318Z,63.49
2023-02-14T02:58:55.257Z,62.86
2023-02-14T03:01:27.940Z,62.53
2023-02-14T03:04:15.836Z,63.13
2023-02-14T03:06:46.176Z,62.64
2023-02-14T03:09:57.730Z,62.97
2023-02-14T03:13:20.131Z,63.11
2023-02-14T03:16:14.263Z,63.31
2023-02-14T03:19:27.559Z,62.29
2023-02-14T03:22:02.734Z,62.33
2023-02-14T03:24:45.905Z,61.41
2023-02-14T03:27:21.064Z,62.47
2023-02-14T03:30:01.946Z,61.99
2023-02-14T03:32:37.503Z,61.85
2023-02-14T03:35:16.137Z,62.80
2023-02-14T03:37:50.680Z,61.65
2023-02-14T03:40:26.973Z,61.77
2023-02-14T03:42:59.749Z,61.88
2023-02-14T03:45:34.139Z,61.82
2023-02-14T03:48:07.778Z,61.80
2023-02-14T03:50:37.882Z,61.58
2023-02-14T03:53:08.959Z,61.24
2023-02-14T03:55:46.659Z,60.92
2023-02-14T03:58:22.291Z,61.48
2023-02-14T04:00:54.053Z,61.38
2023-02-14T04:03:26.078Z,61.07
2023-02-14T04:05:54.588Z,61.01
2023-02-14T04:08:24.592Z,61.46
2023-02-14T04:10:55.129Z,61.59
2023-02-14T04:13:23.309Z,61.20
2023-02-14T04:15:51.374Z,61.06
2023-02-14T04:18:37.170Z,60.55
2023-02-14T04:21:08.712Z,60.76
2023-02-14T04:23:36.726Z,61.23
2023-02-14T04:26:06.350Z,61.43
2023-02-14T04:28:34.852Z,61.97
2023-02-14T04:31:04.560Z,61.50
2023-02-14T04:33:32.935Z,61.53
2023-02-14T04:36:01.921Z,61.95
2023-02-14T04:38:30.103Z,61.40
2023-02-14T04:40:58.500Z,62.04
2023-02-14T04:43:27.975Z,62.74
2023-02-14T04:45:58.653Z,62.79
2023-02-14T04:48:28.418Z,63.82
2023-02-14T04:50:57.731Z,63.07
2023-02-14T04:53:25.792Z,63.65
2023-02-14T04:55:53.819Z,62.96
2023-02-14T04:58:21.825Z,63.08
2023-02-14T05:00:51.294Z,62.95
2023-02-14T05:03:19.338Z,63.87
2023-02-14T05:05:48.580Z,63.63
2023-02-14T05:08:16.622Z,62.54
2023-02-14T05:10:45.189Z,62.48
2023-02-14T05:13:13.653Z,62.40
2023-02-14T05:15:41.718Z,62.16
2023-02-14T05:18:11.078Z,62.50
2023-02-14T05:20:39.091Z,61.31
2023-02-14T05:23:13.400Z,61.57
2023-02-14T05:25:42.629Z,62.02
2023-02-14T05:28:11.121Z,61.40
2023-02-14T05:30:39.663Z,61.44
2023-02-14T05:33:08.073Z,61.35
2023-02-14T05:35:37.722Z,61.60
2023-02-14T05:38:05.736Z,61.34
2023-02-14T05:40:33.907Z,61.04
2023-02-14T05:43:01.972Z,61.78
2023-02-14T05:45:30.121Z,62.26
2023-02-14T05:47:58.152Z,61.79
2023-02-14T05:50:26.266Z,61.05
2023-02-14T05:52:56.888Z,61.84
2023-02-14T05:55:26.192Z,61.31
2023-02-14T05:57:54.272Z,61.29
2023-02-14T06:00:24.748Z,60.79
2023-02-14T06:02:52.876Z,61.18
2023-02-14T06:05:21.034Z,61.20
2023-02-14T06:07:51.182Z,61.32
2023-02-14T06:10:23.797Z,60.31
2023-02-14T06:12:53.666Z,60.65
2023-02-14T06:15:22.124Z,60.42
2023-02-14T06:17:53.963Z,60.78
2023-02-14T06:20:24.209Z,60.73
2023-02-14T06:22:53.217Z,61.44
2023-02-14T06:25:23.669Z,60.70
2023-02-14T06:27:52.270Z,60.51
2023-02-14T06:30:20.378Z,61.23
2023-02-14T06:32:48.420Z,60.68
2023-02-14T06:35:16.821Z,60.73
2023-02-14T06:37:45.337Z,61.25
2023-02-14T06:40:15.266Z,60.65
2023-02-14T06:42:44.629Z,61.60
2023-02-14T06:45:12.978Z,61.98
2023-02-14T06:47:41.114Z,62.33
2023-02-14T06:50:11.623Z,61.60
2023-02-14T06:52:42.142Z,61.51
2023-02-14T06:55:12.138Z,61.01
2023-02-14T06:57:40.320Z,60.76
2023-02-14T07:00:11.588Z,61.01
2023-02-14T07:02:39.718Z,60.74
2023-02-14T07:05:08.010Z,60.99
2023-02-14T07:07:36.028Z,60.87
2023-02-14T07:10:04.505Z,61.18
2023-02-14T07:12:32.489Z,61.14
2023-02-14T07:15:00.449Z,60.94
2023-02-14T07:17:29.844Z,61.17
2023-02-14T07:19:57.810Z,61.74
2023-02-14T07:22:25.926Z,61.55
2023-02-14T07:24:53.967Z,61.94
2023-02-14T07:27:22.095Z,62.22
2023-02-14T07:29:50.156Z,62.64
2023-02-14T07:32:18.509Z,62.94
2023-02-14T07:34:48.244Z,63.04
2023-02-14T07:37:16.718Z,63.11
2023-02-14T07:39:44.978Z,63.51
2023-02-14T07:42:13.431Z,63.50
2023-02-14T07:44:42.054Z,64.08
2023-02-14T07:47:11.241Z,64.59
2023-02-14T07:49:39.323Z,63.41
2023-02-14T07:52:08.763Z,63.85
2023-02-14T07:54:38.614Z,63.71
2023-02-14T07:57:07.170Z,63.67
2023-02-14T07:59:35.527Z,64.17
2023-02-14T08:02:03.772Z,63.75
2023-02-14T08:04:33.818Z,62.18
2023-02-14T08:07:01.953Z,62.54
2023-02-14T08:09:31.610Z,63.06
2023-02-14T08:12:18.270Z,62.55
2023-02-14T08:14:46.995Z,61.24
2023-02-14T08:17:15.482Z,61.48
2023-02-14T08:19:43.483Z,61.88
2023-02-14T08:22:11.526Z,60.56
2023-02-14T08:24:40.863Z,60.63
2023-02-14T08:27:08.882Z,61.55
2023-02-14T08:29:38.838Z,61.25
2023-02-14T08:32:07.238Z,60.11
2023-02-14T08:34:35.250Z,59.99
2023-02-14T08:37:03.336Z,60.24
2023-02-14T08:39:32.951Z,59.84
2023-02-14T08:42:02.336Z,59.71
2023-02-14T08:44:30.353Z,59.71
2023-02-14T08:46:58.672Z,59.24
2023-02-14T08:49:27.018Z,59.00
2023-02-14T08:51:55.260Z,58.59
2023-02-14T08:54:23.335Z,59.34
2023-02-14T08:56:51.626Z,58.87
2023-02-14T08:59:21.063Z,58.83
2023-02-14T09:01:53.467Z,58.60
2023-02-14T09:04:24.146Z,58.50
2023-02-14T09:06:52.280Z,57.42
2023-02-14T09:09:20.597Z,56.99
2023-02-14T09:11:48.662Z,56.97
2023-02-14T09:14:17.262Z,56.88
2023-02-14T09:16:46.723Z,56.96
2023-02-14T09:19:14.910Z,56.31
2023-02-14T09:21:42.990Z,56.26
2023-02-14T09:24:11.473Z,55.98
2023-02-14T09:26:42.081Z,55.70
2023-02-14T09:29:13.653Z,56.06
2023-02-14T09:31:41.754Z,55.68
2023-02-14T09:34:11.231Z,55.85
2023-02-14T09:36:39.279Z,55.55
2023-02-14T09:39:07.543Z,55.26
2023-02-14T09:42:10.175Z,54.89
2023-02-14T09:44:42.663Z,54.71
2023-02-14T09:47:23.032Z,54.32
2023-02-14T09:49:54.123Z,54.04
2023-02-14T09:52:27.796Z,54.23
2023-02-14T09:54:59.249Z,54.27
2023-02-14T09:57:39.981Z,54.23
2023-02-14T10:00:21.543Z,53.83
2023-02-14T10:03:09.810Z,53.41
2023-02-14T10:05:49.486Z,53.10
2023-02-14T10:08:33.756Z,52.60
2023-02-14T10:11:08.501Z,52.27
2023-02-14T10:13:42.176Z,52.06
2023-02-14T10:16:27.125Z,51.89
2023-02-14T10:19:01.406Z,51.28
2023-02-14T10:21:41.970Z,51.26
2023-02-14T10:24:17.481Z,51.13
2023-02-14T10:26:49.277Z,51.39
2023-02-14T10:29:20.688Z,51.55
2023-02-14T10:31:57.878Z,51.73
2023-02-14T10:34:36.960Z,50.39
2023-02-14T10:37:25.557Z,50.57
2023-02-14T10:40:17.573Z,49.93
2023-02-14T10:42:55.098Z,50.49
2023-02-14T10:45:33.270Z,50.28
2023-02-14T10:48:16.552Z,49.95
2023-02-14T10:50:53.761Z,50.13
2023-02-14T10:53:29.338Z,51.41
2023-02-14T10:56:04.636Z,51.98
2023-02-14T10:58:37.526Z,52.71
2023-02-14T11:01:12.061Z,53.46
2023-02-14T11:03:53.779Z,54.16
2023-02-14T11:06:22.290Z,54.43
2023-02-14T11:08:51.756Z,54.23
2023-02-14T11:11:30.252Z,54.68
2023-02-14T11:13:58.438Z,54.45
2023-02-14T11:16:35.018Z,54.87
2023-02-14T11:19:21.059Z,54.35
2023-02-14T11:21:51.497Z,54.55
2023-02-14T11:24:31.573Z,54.69
2023-02-14T11:27:03.269Z,54.20
2023-02-14T11:29:34.835Z,53.99
2023-02-14T11:32:10.198Z,53.95
2023-02-14T11:34:41.818Z,53.63
2023-02-14T11:37:27.781Z,54.37
2023-02-14T11:40:01.471Z,54.21
2023-02-14T11:42:43.437Z,53.99
2023-02-14T11:45:35.050Z,53.85
2023-02-14T11:48:34.890Z,54.63
2023-02-14T11:51:09.134Z,54.49
2023-02-14T11:53:45.977Z,54.01
2023-02-14T11:56:16.602Z,54.98
2023-02-14T11:58:55.347Z,54.89
2023-02-14T12:01:27.626Z,54.66
2023-02-14T12:04:00.716Z,54.06
2023-02-14T12:06:32.343Z,54.73
2023-02-14T12:09:13.709Z,54.19
2023-02-14T12:11:54.866Z,53.71
2023-02-14T12:14:25.599Z,54.96
2023-02-14T12:17:01.523Z,54.64
2023-02-14T12:19:38.191Z,54.34
2023-02-14T12:22:07.780Z,55.18
2023-02-14T12:24:42.397Z,54.75
2023-02-14T12:27:22.445Z,55.06
2023-02-14T12:29:54.770Z,54.52
2023-02-14T12:32:25.984Z,54.29
2023-02-14T12:35:01.778Z,54.84
2023-02-14T12:37:48.778Z,53.85
2023-02-14T12:40:28.833Z,54.99
2023-02-14T12:43:47.826Z,54.93
2023-02-14T12:46:35.083Z,55.16
2023-02-14T12:49:32.546Z,54.80
2023-02-14T12:52:14.158Z,54.42
2023-02-14T12:54:59.674Z,55.31
2023-02-14T12:57:41.440Z,54.82
2023-02-14T13:00:29.745Z,55.33
2023-02-14T13:03:48.852Z,54.07
2023-02-14T13:06:25.468Z,54.55
2023-02-14T13:09:13.718Z,53.93
2023-02-14T13:11:58.598Z,54.23
2023-02-14T13:14:57.714Z,54.01
2023-02-14T13:17:36.935Z,53.68
2023-02-14T13:20:25.844Z,53.83
2023-02-14T13:22:56.789Z,53.76
2023-02-14T13:25:31.754Z,53.18
2023-02-14T13:28:02.387Z,54.22
2023-02-14T13:30:33.735Z,53.99
2023-02-14T13:33:09.259Z,53.31
2023-02-14T13:35:38.513Z,53.49
2023-02-14T13:38:13.404Z,54.19
2023-02-14T13:40:42.175Z,53.91
2023-02-14T13:43:10.212Z,53.75
2023-02-14T13:45:55.797Z,53.81
2023-02-14T13:48:28.523Z,53.87
2023-02-14T13:50:59.991Z,54.08
2023-02-14T13:53:39.427Z,54.05
2023-02-14T13:56:35.772Z,53.32
2023-02-14T13:59:06.949Z,53.62
2023-02-14T14:01:40.447Z,54.04
2023-02-14T14:04:38.349Z,53.98
2023-02-14T14:07:27.053Z,53.08
2023-02-14T14:10:04.290Z,54.03
2023-02-14T14:12:40.773Z,53.91
2023-02-14T14:15:22.121Z,53.89
2023-02-14T14:18:38.371Z,53.97
2023-02-14T14:21:23.838Z,54.02
2023-02-14T14:24:13.432Z,53.56
2023-02-14T14:26:44.833Z,54.56
2023-02-14T14:29:20.268Z,54.11
2023-02-14T14:31:55.281Z,54.59
2023-02-14T14:34:26.027Z,54.04
2023-02-14T14:37:05.499Z,54.57
2023-02-14T14:39:39.748Z,54.66
2023-02-14T14:42:10.675Z,54.51
2023-02-14T14:44:46.150Z,54.87
2023-02-14T14:47:20.775Z,54.74
2023-02-14T14:49:49.570Z,55.08
2023-02-14T14:52:35.372Z,55.18
2023-02-14T14:55:05.758Z,54.88
2023-02-14T14:57:36.120Z,54.74
2023-02-14T15:00:20.412Z,55.47
2023-02-14T15:03:05.609Z,55.91
2023-02-14T15:05:36.705Z,55.14
2023-02-14T15:08:33.609Z,55.44
2023-02-14T15:11:07.450Z,55.95
2023-02-14T15:13:50.465Z,55.94
2023-02-14T15:16:22.052Z,56.21
2023-02-14T15:18:52.128Z,56.20
2023-02-14T15:21:20.430Z,55.52
2023-02-14T15:23:50.349Z,55.68
2023-02-14T15:26:24.133Z,55.53
2023-02-14T15:28:58.058Z,56.18
2023-02-14T15:31:32.281Z,56.27
2023-02-14T15:34:02.800Z,56.23
2023-02-14T15:36:33.195Z,56.02
2023-02-14T15:39:06.611Z,56.09
2023-02-14T15:41:34.691Z,55.97
2023-02-14T15:44:02.698Z,56.25
2023-02-14T15:46:36.509Z,55.79
2023-02-14T15:49:11.420Z,55.82
2023-02-14T15:51:40.710Z,55.97
2023-02-14T15:54:21.886Z,56.55
2023-02-14T15:56:53.220Z,56.92
2023-02-14T15:59:23.752Z,56.63
2023-02-14T16:01:56.563Z,55.93
2023-02-14T16:04:26.595Z,56.61
2023-02-14T16:07:22.399Z,56.75
2023-02-14T16:10:20.544Z,56.70
2023-02-14T16:13:01.177Z,56.79
2023-02-14T16:15:33.287Z,57.20
2023-02-14T16:18:06.937Z,57.52
2023-02-14T16:20:45.179Z,57.43
2023-02-14T16:23:26.869Z,57.62
2023-02-14T16:25:58.216Z,57.96
2023-02-14T16:28:30.918Z,57.71
2023-02-14T16:31:02.802Z,57.83
2023-02-14T16:33:35.162Z,57.86
2023-02-14T16:36:09.214Z,57.40
2023-02-14T16:38:43.808Z,57.34
2023-02-14T16:41:22.192Z,57.37
2023-02-14T16:43:51.247Z,57.09
2023-02-14T16:46:23.120Z,56.98
2023-02-14T16:48:52.528Z,56.95
2023-02-14T16:51:23.438Z,56.89
2023-02-14T16:53:52.229Z,57.66
2023-02-14T16:56:24.907Z,57.35
2023-02-14T16:58:52.985Z,57.59
2023-02-14T17:01:21.048Z,57.58
2023-02-14T17:03:49.046Z,57.56
2023-02-14T17:06:27.345Z,57.51
2023-02-14T17:08:57.492Z,57.63
2023-02-14T17:11:31.811Z,57.60
2023-02-14T17:14:00.274Z,57.79
2023-02-14T17:16:30.560Z,57.83
2023-02-14T17:18:58.970Z,57.91
2023-02-14T17:21:26.954Z,57.64
2023-02-14T17:23:55.554Z,59.05
2023-02-14T17:26:23.791Z,59.23
2023-02-14T17:28:53.148Z,58.76
2023-02-14T17:31:21.459Z,59.28
2023-02-14T17:33:49.530Z,59.22
2023-02-14T17:36:17.666Z,59.13
2023-02-14T17:38:45.652Z,58.99
2023-02-14T17:41:16.826Z,58.67
2023-02-14T17:43:44.996Z,58.91
2023-02-14T17:46:15.865Z,59.01
2023-02-14T17:48:45.391Z,58.92
2023-02-14T17:51:16.094Z,58.59
2023-02-14T17:53:44.848Z,59.19
2023-02-14T17:56:21.109Z,57.93
2023-02-14T17:58:51.660Z,59.49
2023-02-14T18:01:23.735Z,59.42
2023-02-14T18:03:52.471Z,59.49
2023-02-14T18:06:21.546Z,59.57
2023-02-14T18:08:53.604Z,59.72
2023-02-14T18:11:22.538Z,60.38
2023-02-14T18:13:51.324Z,60.26
2023-02-14T18:16:20.813Z,59.43
2023-02-14T18:18:49.187Z,59.72
2023-02-14T18:21:20.815Z,59.95
2023-02-14T18:23:49.182Z,59.96
2023-02-14T18:26:18.954Z,60.49
2023-02-14T18:28:47.028Z,60.94
2023-02-14T18:31:18.001Z,60.54
2023-02-14T18:33:49.682Z,60.67
2023-02-14T18:36:21.697Z,61.16
2023-02-14T18:38:50.667Z,62.25
2023-02-14T18:41:20.604Z,61.48
2023-02-14T18:43:49.882Z,61.89
2023-02-14T18:46:21.356Z,61.77
2023-02-14T18:48:51.816Z,61.61
2023-02-14T18:51:22.573Z,60.83
2023-02-14T18:53:52.742Z,60.35
2023-02-14T18:56:23.534Z,60.75
2023-02-14T18:58:56.466Z,60.76
2023-02-14T19:01:29.493Z,61.59
2023-02-14T19:04:01.081Z,61.30
2023-02-14T19:06:31.899Z,61.94
2023-02-14T19:09:01.489Z,60.52
2023-02-14T19:11:32.930Z,59.99
2023-02-14T19:14:05.183Z,60.09
2023-02-14T19:16:36.676Z,60.30
2023-02-14T19:19:06.427Z,60.15
2023-02-14T19:21:36.638Z,60.16
2023-02-14T19:24:07.829Z,60.14
2023-02-14T19:26:40.738Z,60.53
2023-02-14T19:29:12.419Z,60.38
2023-02-14T19:31:43.960Z,60.15
2023-02-14T19:34:19.145Z,60.13
2023-02-14T19:36:48.187Z,60.02
2023-02-14T19:39:17.177Z,60.29
2023-02-14T19:41:46.365Z,60.20
2023-02-14T19:44:16.994Z,60.67
2023-02-14T19:46:47.715Z,60.57
2023-02-14T19:49:20.382Z,60.35
2023-02-14T19:51:51.080Z,60.29
2023-02-14T19:54:19.636Z,59.27
2023-02-14T19:56:48.885Z,59.18
2023-02-14T19:59:21.713Z,59.71
2023-02-14T20:01:52.182Z,59.40
2023-02-14T20:04:23.737Z,59.88
2023-02-14T20:06:53.370Z,59.32
2023-02-14T20:09:22.761Z,59.56
2023-02-14T20:11:54.292Z,60.32
2023-02-14T20:14:24.973Z,59.87
2023-02-14T20:16:55.367Z,60.51
2023-02-14T20:19:27.935Z,59.94
2023-02-14T20:21:56.114Z,60.27
2023-02-14T20:24:26.905Z,60.23
2023-02-14T20:26:56.231Z,60.25
2023-02-14T20:29:26.370Z,60.82
2023-02-14T20:31:58.038Z,61.09
2023-02-14T20:34:28.003Z,60.23
2023-02-14T20:36:56.381Z,60.03
2023-02-14T20:39:30.420Z,59.77
2023-02-14T20:41:58.515Z,61.33
2023-02-14T20:44:27.069Z,60.73
2023-02-14T20:46:56.829Z,60.26
2023-02-14T20:49:29.826Z,60.14
2023-02-14T20:51:58.456Z,61.00
2023-02-14T20:54:29.085Z,60.89
2023-02-14T20:56:58.395Z,61.25
2023-02-14T20:59:28.483Z,61.60
2023-02-14T21:01:58.557Z,61.34
2023-02-14T21:04:29.479Z,60.84
2023-02-14T21:07:00.112Z,61.64
2023-02-14T21:09:28.307Z,61.59
2023-02-14T21:11:57.961Z,61.66
2023-02-14T21:14:26.125Z,60.69
2023-02-14T21:16:54.152Z,60.38
2023-02-14T21:19:22.336Z,61.12
2023-02-14T21:21:51.813Z,60.26
2023-02-14T21:24:19.898Z,61.91
2023-02-14T21:26:47.904Z,61.78
2023-02-14T21:29:15.923Z,62.90
2023-02-14T21:31:44.037Z,62.36
2023-02-14T21:34:12.296Z,61.51
2023-02-14T21:36:40.322Z,60.78
2023-02-14T21:39:09.676Z,61.27
2023-02-14T21:41:38.356Z,61.23
2023-02-14T21:44:07.149Z,61.86
2023-02-14T21:46:38.717Z,61.72
2023-02-14T21:49:25.406Z,61.03
2023-02-14T21:51:53.654Z,61.37
2023-02-14T21:54:22.990Z,60.98
2023-02-14T21:56:51.123Z,61.87
2023-02-14T21:59:19.219Z,62.22
2023-02-14T22:01:47.436Z,61.38
2023-02-14T22:04:15.566Z,62.00
2023-02-14T22:06:44.226Z,61.80
2023-02-14T22:09:17.312Z,61.01
2023-02-14T22:11:47.478Z,61.46
2023-02-14T22:14:15.907Z,62.54
2023-02-14T22:16:43.916Z,62.55
2023-02-14T22:19:15.778Z,62.23
2023-02-14T22:21:44.341Z,61.54
2023-02-14T22:24:12.683Z,61.48
2023-02-14T22:26:41.560Z,61.50
2023-02-14T22:29:13.417Z,61.26
2023-02-14T22:31:43.927Z,61.07
2023-02-14T22:34:14.971Z,61.56
2023-02-14T22:36:43.088Z,61.00
2023-02-14T22:39:14.170Z,60.76
2023-02-14T22:41:42.203Z,61.36
2023-02-14T22:44:13.390Z,60.91
2023-02-14T22:46:41.814Z,61.01
2023-02-14T22:49:09.936Z,60.39
2023-02-14T22:51:41.222Z,60.97
2023-02-14T22:54:13.448Z,61.17
2023-02-14T22:56:44.371Z,61.23
2023-02-14T22:59:19.436Z,61.05
2023-02-14T23:01:48.620Z,60.77
2023-02-14T23:04:18.540Z,60.98
2023-02-14T23:06:46.815Z,61.08
2023-02-14T23:09:16.295Z,61.23
2023-02-14T23:11:47.015Z,60.27
2023-02-14T23:14:35.820Z,60.23
2023-02-14T23:17:22.477Z,61.37
2023-02-14T23:20:07.958Z,60.75
2023-02-14T23:22:38.731Z,61.17
2023-02-14T23:25:09.476Z,61.48
2023-02-14T23:27:40.731Z,61.96
2023-02-14T23:30:15.027Z,61.83
2023-02-14T23:32:43.605Z,62.14
2023-02-14T23:35:11.875Z,62.49
2023-02-14T23:37:40.078Z,62.51
2023-02-14T23:40:10.229Z,62.66
2023-02-14T23:42:38.448Z,62.67
2023-02-14T23:45:25.205Z,62.13
2023-02-14T23:47:54.630Z,62.50
2023-02-14T23:50:22.681Z,62.22
2023-02-14T23:52:50.740Z,61.67
2023-02-14T23:55:18.928Z,61.63
2023-02-14T23:57:47.020Z,61.44
